sensor_id;sensor_type;location;lat;lon;timestamp;pressure;altitude;pressure_sealevel;temperature;humidity
64402;BME280;50724;42.376;23.768;2023-07-13T00:02:19;93484.78;;;20.37;59.50
64402;BME280;50724;42.376;23.768;2023-07-13T00:05:23;93483.69;;;20.13;61.06
64402;BME280;50724;42.376;23.768;2023-07-13T00:08:24;93479.47;;;20.30;60.38
64402;BME280;50724;42.376;23.768;2023-07-13T00:11:33;93482.03;;;20.12;61.02
64402;BME280;50724;42.376;23.768;2023-07-13T00:14:33;93474.97;;;20.00;62.49
64402;BME280;50724;42.376;23.768;2023-07-13T00:17:34;93471.88;;;20.03;62.48
64402;BME280;50724;42.376;23.768;2023-07-13T00:20:34;93470.25;;;20.02;61.85
64402;BME280;50724;42.376;23.768;2023-07-13T00:23:38;93467.44;;;19.97;62.80
64402;BME280;50724;42.376;23.768;2023-07-13T00:26:40;93464.00;;;19.89;63.33
64402;BME280;50724;42.376;23.768;2023-07-13T00:29:40;93462.16;;;19.90;62.25
64402;BME280;50724;42.376;23.768;2023-07-13T00:32:41;93459.19;;;20.05;60.87
64402;BME280;50724;42.376;23.768;2023-07-13T00:35:41;93456.34;;;20.06;61.44
64402;BME280;50724;42.376;23.768;2023-07-13T00:38:44;93452.44;;;20.09;60.44
64402;BME280;50724;42.376;23.768;2023-07-13T00:41:44;93458.00;;;20.01;60.22
64402;BME280;50724;42.376;23.768;2023-07-13T00:48:17;93448.19;;;20.01;60.95
64402;BME280;50724;42.376;23.768;2023-07-13T00:51:25;93447.91;;;19.84;61.57
64402;BME280;50724;42.376;23.768;2023-07-13T00:54:34;93445.78;;;19.62;63.08
64402;BME280;50724;42.376;23.768;2023-07-13T00:57:36;93452.00;;;19.43;65.02
64402;BME280;50724;42.376;23.768;2023-07-13T01:00:38;93442.81;;;19.45;64.13
64402;BME280;50724;42.376;23.768;2023-07-13T01:03:39;93431.16;;;19.46;63.31
64402;BME280;50724;42.376;23.768;2023-07-13T01:06:41;93427.53;;;19.34;63.63
64402;BME280;50724;42.376;23.768;2023-07-13T01:09:44;93432.41;;;19.37;62.57
64402;BME280;50724;42.376;23.768;2023-07-13T01:12:45;93435.66;;;19.33;63.09
64402;BME280;50724;42.376;23.768;2023-07-13T01:15:47;93425.50;;;19.36;64.60
64402;BME280;50724;42.376;23.768;2023-07-13T01:18:48;93430.63;;;19.25;64.79
64402;BME280;50724;42.376;23.768;2023-07-13T01:21:52;93424.72;;;19.16;65.63
64402;BME280;50724;42.376;23.768;2023-07-13T01:24:54;93423.63;;;19.30;63.31
64402;BME280;50724;42.376;23.768;2023-07-13T01:27:54;93422.03;;;19.29;62.97
64402;BME280;50724;42.376;23.768;2023-07-13T01:30:57;93422.22;;;19.28;62.98
64402;BME280;50724;42.376;23.768;2023-07-13T01:33:58;93428.94;;;19.43;61.10
64402;BME280;50724;42.376;23.768;2023-07-13T01:36:58;93424.47;;;19.37;61.79
64402;BME280;50724;42.376;23.768;2023-07-13T01:39:59;93427.47;;;19.47;61.06
64402;BME280;50724;42.376;23.768;2023-07-13T01:43:00;93422.13;;;19.54;60.64
64402;BME280;50724;42.376;23.768;2023-07-13T01:46:01;93430.47;;;19.64;61.00
64402;BME280;50724;42.376;23.768;2023-07-13T01:49:01;93424.94;;;19.97;58.74
64402;BME280;50724;42.376;23.768;2023-07-13T01:52:02;93424.00;;;21.08;52.61
64402;BME280;50724;42.376;23.768;2023-07-13T01:55:03;93419.75;;;21.73;49.68
64402;BME280;50724;42.376;23.768;2023-07-13T01:58:04;93420.81;;;22.13;48.52
64402;BME280;50724;42.376;23.768;2023-07-13T02:01:04;93421.28;;;22.10;51.88
64402;BME280;50724;42.376;23.768;2023-07-13T02:04:05;93425.59;;;21.45;54.44
64402;BME280;50724;42.376;23.768;2023-07-13T02:07:06;93426.53;;;21.21;53.92
64402;BME280;50724;42.376;23.768;2023-07-13T02:10:08;93430.97;;;21.09;55.75
64402;BME280;50724;42.376;23.768;2023-07-13T02:13:09;93425.63;;;20.66;58.26
64402;BME280;50724;42.376;23.768;2023-07-13T02:16:10;93429.66;;;20.26;59.45
64402;BME280;50724;42.376;23.768;2023-07-13T02:19:10;93422.41;;;20.82;54.74
64402;BME280;50724;42.376;23.768;2023-07-13T02:22:10;93427.75;;;21.00;54.86
64402;BME280;50724;42.376;23.768;2023-07-13T02:25:11;93429.13;;;20.85;57.20
64402;BME280;50724;42.376;23.768;2023-07-13T02:28:11;93437.56;;;20.82;57.32
64402;BME280;50724;42.376;23.768;2023-07-13T02:31:14;93439.41;;;20.81;57.83
64402;BME280;50724;42.376;23.768;2023-07-13T02:34:14;93446.72;;;20.61;56.87
64402;BME280;50724;42.376;23.768;2023-07-13T02:37:15;93437.56;;;20.57;56.65
64402;BME280;50724;42.376;23.768;2023-07-13T02:40:15;93443.31;;;20.54;57.12
64402;BME280;50724;42.376;23.768;2023-07-13T02:43:16;93441.22;;;20.38;57.57
64402;BME280;50724;42.376;23.768;2023-07-13T02:46:16;93440.84;;;20.34;58.08
64402;BME280;50724;42.376;23.768;2023-07-13T02:49:17;93447.91;;;20.16;59.59
64402;BME280;50724;42.376;23.768;2023-07-13T02:52:17;93454.31;;;20.33;58.76
64402;BME280;50724;42.376;23.768;2023-07-13T02:55:17;93449.03;;;21.00;55.30
64402;BME280;50724;42.376;23.768;2023-07-13T02:58:18;93453.13;;;21.39;54.04
64402;BME280;50724;42.376;23.768;2023-07-13T03:01:18;93454.50;;;21.60;54.16
64402;BME280;50724;42.376;23.768;2023-07-13T03:04:19;93450.72;;;21.67;53.96
64402;BME280;50724;42.376;23.768;2023-07-13T03:07:19;93445.31;;;21.74;53.69
64402;BME280;50724;42.376;23.768;2023-07-13T03:10:20;93453.44;;;21.79;53.66
64402;BME280;50724;42.376;23.768;2023-07-13T03:13:20;93445.22;;;21.80;53.74
64402;BME280;50724;42.376;23.768;2023-07-13T03:16:21;93445.38;;;22.04;53.36
64402;BME280;50724;42.376;23.768;2023-07-13T03:19:21;93448.09;;;21.97;56.13
64402;BME280;50724;42.376;23.768;2023-07-13T03:22:21;93452.38;;;21.68;57.71
64402;BME280;50724;42.376;23.768;2023-07-13T03:25:22;93447.56;;;21.41;58.25
64402;BME280;50724;42.376;23.768;2023-07-13T03:28:22;93445.91;;;21.03;60.89
64402;BME280;50724;42.376;23.768;2023-07-13T03:31:28;93443.22;;;20.67;59.25
64402;BME280;50724;42.376;23.768;2023-07-13T03:34:29;93449.91;;;20.20;60.86
64402;BME280;50724;42.376;23.768;2023-07-13T03:37:30;93451.38;;;20.23;59.08
64402;BME280;50724;42.376;23.768;2023-07-13T03:40:30;93452.44;;;20.09;60.01
64402;BME280;50724;42.376;23.768;2023-07-13T03:43:30;93451.44;;;20.03;60.84
64402;BME280;50724;42.376;23.768;2023-07-13T03:46:31;93456.69;;;19.85;59.30
64402;BME280;50724;42.376;23.768;2023-07-13T03:49:31;93453.13;;;19.98;59.16
64402;BME280;50724;42.376;23.768;2023-07-13T03:52:32;93458.88;;;19.95;62.71
64402;BME280;50724;42.376;23.768;2023-07-13T03:55:33;93455.56;;;19.99;62.94
64402;BME280;50724;42.376;23.768;2023-07-13T03:58:35;93455.06;;;20.15;61.92
64402;BME280;50724;42.376;23.768;2023-07-13T04:01:37;93448.06;;;20.27;61.17
64402;BME280;50724;42.376;23.768;2023-07-13T04:04:38;93449.13;;;20.44;63.43
64402;BME280;50724;42.376;23.768;2023-07-13T04:07:40;93443.72;;;20.58;64.92
64402;BME280;50724;42.376;23.768;2023-07-13T04:10:41;93440.25;;;20.75;63.66
64402;BME280;50724;42.376;23.768;2023-07-13T04:13:41;93446.59;;;20.99;62.76
64402;BME280;50724;42.376;23.768;2023-07-13T04:16:42;93452.41;;;21.14;63.71
64402;BME280;50724;42.376;23.768;2023-07-13T04:19:43;93453.13;;;21.39;63.50
64402;BME280;50724;42.376;23.768;2023-07-13T04:22:44;93447.44;;;21.54;64.12
64402;BME280;50724;42.376;23.768;2023-07-13T04:25:45;93457.31;;;23.58;55.15
64402;BME280;50724;42.376;23.768;2023-07-13T04:28:46;93458.44;;;26.60;48.44
64402;BME280;50724;42.376;23.768;2023-07-13T04:31:47;93467.19;;;28.95;41.55
64402;BME280;50724;42.376;23.768;2023-07-13T04:34:47;93464.91;;;29.98;39.74
64402;BME280;50724;42.376;23.768;2023-07-13T04:37:53;93470.75;;;31.12;36.57
64402;BME280;50724;42.376;23.768;2023-07-13T04:40:58;93469.81;;;31.84;36.17
64402;BME280;50724;42.376;23.768;2023-07-13T04:43:59;93470.81;;;32.78;33.77
64402;BME280;50724;42.376;23.768;2023-07-13T04:47:00;93469.19;;;34.25;31.46
64402;BME280;50724;42.376;23.768;2023-07-13T04:50:00;93473.19;;;34.41;31.07
64402;BME280;50724;42.376;23.768;2023-07-13T04:53:00;93476.47;;;34.79;30.70
64402;BME280;50724;42.376;23.768;2023-07-13T04:56:01;93465.47;;;35.42;27.97
64402;BME280;50724;42.376;23.768;2023-07-13T04:59:02;93468.94;;;36.09;27.63
64402;BME280;50724;42.376;23.768;2023-07-13T05:02:03;93468.56;;;36.02;27.27
64402;BME280;50724;42.376;23.768;2023-07-13T05:05:04;93471.47;;;34.94;29.00
64402;BME280;50724;42.376;23.768;2023-07-13T05:08:12;93468.31;;;34.51;29.46
64402;BME280;50724;42.376;23.768;2023-07-13T05:11:13;93469.19;;;35.46;30.55
64402;BME280;50724;42.376;23.768;2023-07-13T05:14:13;93476.22;;;36.78;27.31
64402;BME280;50724;42.376;23.768;2023-07-13T05:17:15;93481.97;;;36.60;27.09
64402;BME280;50724;42.376;23.768;2023-07-13T05:20:16;93487.91;;;36.70;27.23
64402;BME280;50724;42.376;23.768;2023-07-13T05:23:17;93479.63;;;34.72;29.28
64402;BME280;50724;42.376;23.768;2023-07-13T05:26:17;93481.53;;;32.88;33.76
64402;BME280;50724;42.376;23.768;2023-07-13T05:29:18;93480.41;;;32.10;35.54
64402;BME280;50724;42.376;23.768;2023-07-13T05:32:18;93472.31;;;31.52;36.63
64402;BME280;50724;42.376;23.768;2023-07-13T05:35:19;93476.88;;;30.45;38.41
64402;BME280;50724;42.376;23.768;2023-07-13T05:38:19;93478.75;;;29.51;42.51
64402;BME280;50724;42.376;23.768;2023-07-13T05:41:20;93475.00;;;29.11;43.78
64402;BME280;50724;42.376;23.768;2023-07-13T05:44:20;93487.28;;;28.52;44.87
64402;BME280;50724;42.376;23.768;2023-07-13T05:47:21;93491.44;;;28.03;47.15
64402;BME280;50724;42.376;23.768;2023-07-13T05:50:21;93496.91;;;28.18;48.03
64402;BME280;50724;42.376;23.768;2023-07-13T05:53:22;93500.09;;;28.15;48.81
64402;BME280;50724;42.376;23.768;2023-07-13T05:56:22;93497.59;;;27.98;50.73
64402;BME280;50724;42.376;23.768;2023-07-13T05:59:23;93497.69;;;28.13;50.16
64402;BME280;50724;42.376;23.768;2023-07-13T06:02:23;93502.94;;;28.55;49.39
64402;BME280;50724;42.376;23.768;2023-07-13T06:05:34;93512.91;;;28.59;48.32
64402;BME280;50724;42.376;23.768;2023-07-13T06:08:36;93499.75;;;28.73;45.64
64402;BME280;50724;42.376;23.768;2023-07-13T06:11:37;93505.47;;;29.27;49.74
64402;BME280;50724;42.376;23.768;2023-07-13T06:14:37;93504.13;;;29.40;48.54
64402;BME280;50724;42.376;23.768;2023-07-13T06:17:38;93501.13;;;29.56;48.58
64402;BME280;50724;42.376;23.768;2023-07-13T06:20:48;93511.66;;;29.48;49.16
64402;BME280;50724;42.376;23.768;2023-07-13T06:23:50;93504.94;;;29.30;47.03
64402;BME280;50724;42.376;23.768;2023-07-13T06:26:51;93498.44;;;29.56;48.64
64402;BME280;50724;42.376;23.768;2023-07-13T06:29:51;93503.56;;;29.43;48.60
64402;BME280;50724;42.376;23.768;2023-07-13T06:32:52;93504.94;;;29.30;49.90
64402;BME280;50724;42.376;23.768;2023-07-13T06:36:02;93499.50;;;29.70;49.45
64402;BME280;50724;42.376;23.768;2023-07-13T06:39:03;93505.72;;;29.61;49.78
64402;BME280;50724;42.376;23.768;2023-07-13T06:42:03;93512.59;;;30.17;47.50
64402;BME280;50724;42.376;23.768;2023-07-13T06:45:05;93504.75;;;30.21;48.11
64402;BME280;50724;42.376;23.768;2023-07-13T06:48:05;93509.84;;;30.27;47.43
64402;BME280;50724;42.376;23.768;2023-07-13T06:51:06;93515.25;;;30.22;46.93
64402;BME280;50724;42.376;23.768;2023-07-13T06:54:07;93510.13;;;30.36;47.35
64402;BME280;50724;42.376;23.768;2023-07-13T06:57:07;93503.53;;;30.57;45.64
64402;BME280;50724;42.376;23.768;2023-07-13T08:03:51;93482.31;;;30.79;36.92
64402;BME280;50724;42.376;23.768;2023-07-13T08:07:00;93476.94;;;31.18;39.49
64402;BME280;50724;42.376;23.768;2023-07-13T08:10:03;93474.22;;;31.18;36.59
64402;BME280;50724;42.376;23.768;2023-07-13T08:13:04;93472.41;;;31.08;37.24
64402;BME280;50724;42.376;23.768;2023-07-13T08:16:05;93463.50;;;31.08;36.85
64402;BME280;50724;42.376;23.768;2023-07-13T08:19:06;93458.91;;;31.37;37.21
64402;BME280;50724;42.376;23.768;2023-07-13T08:22:06;93469.47;;;31.67;38.28
64402;BME280;50724;42.376;23.768;2023-07-13T08:25:07;93464.09;;;31.62;38.20
64402;BME280;50724;42.376;23.768;2023-07-13T08:28:08;93470.06;;;31.88;43.26
64402;BME280;50724;42.376;23.768;2023-07-13T08:31:09;93467.00;;;32.18;43.17
64402;BME280;50724;42.376;23.768;2023-07-13T08:34:10;93467.25;;;32.64;42.86
64402;BME280;50724;42.376;23.768;2023-07-13T08:37:11;93467.78;;;33.03;40.39
64402;BME280;50724;42.376;23.768;2023-07-13T08:40:12;93466.66;;;33.04;39.91
64402;BME280;50724;42.376;23.768;2023-07-13T08:43:17;93465.06;;;33.54;40.70
64402;BME280;50724;42.376;23.768;2023-07-13T08:46:25;93461.25;;;33.37;38.06
64402;BME280;50724;42.376;23.768;2023-07-13T08:49:27;93465.19;;;33.44;39.12
64402;BME280;50724;42.376;23.768;2023-07-13T08:52:38;93460.75;;;33.67;37.78
64402;BME280;50724;42.376;23.768;2023-07-13T08:55:40;93463.91;;;34.01;36.40
64402;BME280;50724;42.376;23.768;2023-07-13T08:58:41;93457.59;;;34.19;35.32
64402;BME280;50724;42.376;23.768;2023-07-13T09:04:50;93459.50;;;34.05;36.15
64402;BME280;50724;42.376;23.768;2023-07-13T09:14:49;93446.84;;;34.77;34.15
64402;BME280;50724;42.376;23.768;2023-07-13T09:17:53;93447.09;;;34.67;34.85
64402;BME280;50724;42.376;23.768;2023-07-13T09:20:59;93437.66;;;34.51;35.39
64402;BME280;50724;42.376;23.768;2023-07-13T09:27:30;93439.88;;;34.63;34.71
64402;BME280;50724;42.376;23.768;2023-07-13T09:30:41;93434.03;;;34.55;34.90
64402;BME280;50724;42.376;23.768;2023-07-13T09:33:44;93436.19;;;34.81;37.10
64402;BME280;50724;42.376;23.768;2023-07-13T09:36:45;93430.25;;;34.79;33.26
64402;BME280;50724;42.376;23.768;2023-07-13T09:39:45;93434.38;;;34.98;34.06
64402;BME280;50724;42.376;23.768;2023-07-13T09:42:46;93429.53;;;35.31;34.37
64402;BME280;50724;42.376;23.768;2023-07-13T09:45:47;93435.06;;;35.40;32.97
64402;BME280;50724;42.376;23.768;2023-07-13T09:48:48;93439.75;;;35.26;32.07
64402;BME280;50724;42.376;23.768;2023-07-13T09:51:57;93444.03;;;34.82;33.80
64402;BME280;50724;42.376;23.768;2023-07-13T09:54:59;93443.41;;;35.21;33.20
64402;BME280;50724;42.376;23.768;2023-07-13T10:01:13;93455.50;;;35.15;29.75
64402;BME280;50724;42.376;23.768;2023-07-13T10:04:17;93441.78;;;35.20;24.90
64402;BME280;50724;42.376;23.768;2023-07-13T10:07:22;93448.41;;;34.70;25.40
64402;BME280;50724;42.376;23.768;2023-07-13T10:10:23;93440.66;;;34.63;29.28
64402;BME280;50724;42.376;23.768;2023-07-13T10:13:36;93436.34;;;34.62;29.34
64402;BME280;50724;42.376;23.768;2023-07-13T10:16:41;93427.41;;;33.66;30.12
64402;BME280;50724;42.376;23.768;2023-07-13T10:19:43;93431.94;;;33.84;32.28
64402;BME280;50724;42.376;23.768;2023-07-13T10:22:56;93426.72;;;34.15;32.41
64402;BME280;50724;42.376;23.768;2023-07-13T10:25:59;93420.88;;;33.95;31.80
64402;BME280;50724;42.376;23.768;2023-07-13T10:29:05;93407.69;;;34.29;31.45
64402;BME280;50724;42.376;23.768;2023-07-13T10:32:12;93405.53;;;34.67;29.09
64402;BME280;50724;42.376;23.768;2023-07-13T10:35:15;93401.53;;;34.86;27.58
64402;BME280;50724;42.376;23.768;2023-07-13T10:38:21;93405.50;;;33.90;28.22
64402;BME280;50724;42.376;23.768;2023-07-13T10:41:24;93405.50;;;33.90;28.52
64402;BME280;50724;42.376;23.768;2023-07-13T10:44:28;93407.84;;;34.60;26.84
64402;BME280;50724;42.376;23.768;2023-07-13T10:47:29;93399.31;;;34.39;28.73
64402;BME280;50724;42.376;23.768;2023-07-13T10:50:30;93394.94;;;34.16;32.97
64402;BME280;50724;42.376;23.768;2023-07-13T10:53:33;93392.22;;;34.16;27.46
64402;BME280;50724;42.376;23.768;2023-07-13T10:56:35;93390.19;;;33.53;33.84
64402;BME280;50724;42.376;23.768;2023-07-13T10:59:36;93392.16;;;33.48;35.88
64402;BME280;50724;42.376;23.768;2023-07-13T11:02:36;93390.63;;;33.28;34.95
64402;BME280;50724;42.376;23.768;2023-07-13T11:05:37;93389.69;;;33.65;33.57
64402;BME280;50724;42.376;23.768;2023-07-13T11:11:49;93384.44;;;33.09;34.98
64402;BME280;50724;42.376;23.768;2023-07-13T11:17:56;93385.16;;;33.74;34.86
64402;BME280;50724;42.376;23.768;2023-07-13T11:21:17;93381.59;;;33.46;35.73
64402;BME280;50724;42.376;23.768;2023-07-13T11:24:18;93383.28;;;32.96;36.99
64402;BME280;50724;42.376;23.768;2023-07-13T11:30:59;93376.53;;;33.58;36.45
64402;BME280;50724;42.376;23.768;2023-07-13T11:34:00;93374.81;;;33.62;35.05
64402;BME280;50724;42.376;23.768;2023-07-13T11:37:02;93369.88;;;33.91;34.54
64402;BME280;50724;42.376;23.768;2023-07-13T11:40:03;93366.63;;;34.30;32.58
64402;BME280;50724;42.376;23.768;2023-07-13T11:43:06;93362.56;;;34.06;33.23
64402;BME280;50724;42.376;23.768;2023-07-13T11:46:27;93353.63;;;34.41;28.76
64402;BME280;50724;42.376;23.768;2023-07-13T11:49:30;93356.56;;;34.89;29.41
64402;BME280;50724;42.376;23.768;2023-07-13T11:52:37;93359.84;;;34.77;30.93
64402;BME280;50724;42.376;23.768;2023-07-13T11:55:38;93356.91;;;34.87;30.47
64402;BME280;50724;42.376;23.768;2023-07-13T11:58:38;93355.00;;;35.41;28.19
64402;BME280;50724;42.376;23.768;2023-07-13T12:01:44;93342.50;;;36.10;27.89
64402;BME280;50724;42.376;23.768;2023-07-13T12:04:46;93354.06;;;36.24;27.34
64402;BME280;50724;42.376;23.768;2023-07-13T12:07:49;93356.75;;;36.07;29.39
64402;BME280;50724;42.376;23.768;2023-07-13T12:11:00;93335.09;;;35.23;30.85
64402;BME280;50724;42.376;23.768;2023-07-13T12:14:05;93334.50;;;35.35;31.30
64402;BME280;50724;42.376;23.768;2023-07-13T12:17:16;93343.25;;;34.79;33.07
64402;BME280;50724;42.376;23.768;2023-07-13T12:20:29;93344.81;;;34.93;26.88
64402;BME280;50724;42.376;23.768;2023-07-13T12:26:14;93340.94;;;34.94;32.30
64402;BME280;50724;42.376;23.768;2023-07-13T12:29:24;93328.34;;;35.20;32.70
64402;BME280;50724;42.376;23.768;2023-07-13T12:32:26;93318.09;;;34.95;31.02
64402;BME280;50724;42.376;23.768;2023-07-13T12:35:30;93327.66;;;34.48;32.44
64402;BME280;50724;42.376;23.768;2023-07-13T12:38:31;93323.81;;;35.07;32.59
64402;BME280;50724;42.376;23.768;2023-07-13T12:41:33;93305.44;;;34.69;30.80
64402;BME280;50724;42.376;23.768;2023-07-13T12:44:40;93313.84;;;34.45;32.40
64402;BME280;50724;42.376;23.768;2023-07-13T12:47:43;93313.19;;;34.39;31.75
64402;BME280;50724;42.376;23.768;2023-07-13T12:50:48;93314.22;;;34.52;32.16
64402;BME280;50724;42.376;23.768;2023-07-13T12:53:56;93318.59;;;34.97;27.68
64402;BME280;50724;42.376;23.768;2023-07-13T12:56:58;93311.63;;;35.36;28.57
64402;BME280;50724;42.376;23.768;2023-07-13T12:59:59;93305.84;;;34.84;28.72
64402;BME280;50724;42.376;23.768;2023-07-13T13:06:25;93305.78;;;35.51;25.67
64402;BME280;50724;42.376;23.768;2023-07-13T13:09:26;93303.50;;;35.92;26.61
64402;BME280;50724;42.376;23.768;2023-07-13T13:12:26;93284.97;;;36.03;26.12
64402;BME280;50724;42.376;23.768;2023-07-13T13:15:27;93288.19;;;36.22;26.94
64402;BME280;50724;42.376;23.768;2023-07-13T13:18:27;93289.38;;;35.73;26.64
